Weather at Ćuprija Airstrip

Public forecast

Using degrees Celsius for public forecast. Weather courtesy of forecast.io.

Closest aviation weather report (METAR) to Ćuprija Airstrip

Closest report is Morava Airport, 36.3 nm (67.3 km) WSW.

2024/05/26 17:30 (retrieved 35 minutes ago)

LYKV 261730Z 02003KT CAVOK 21/09 Q1018 NOSIG

Closest aviation forecast (TAF) to Ćuprija Airstrip

Closest forecast is Morava Airport, 36.3 nm (67.3 km) WSW.

2024/05/26 18:00 (retrieved 5 minutes ago)

TAF LYKV 261700Z 2618/2718 06004KT CAVOK TX26/2712Z TN10/2703Z